Ridgway, IL (62979)

2:22 AM CST on February 06, 2016 (GMT -0600)
Harrisburg-Raleigh | | Change Station
CLOSE
Current Station
Airport
Location: Harrisburg,
Elevation: 397 ft
Nearby Weather Stations
Active Advisory: Flood Warning

Elev 397 ft 37.81 °N, 88.55 °W | Updated 7 minutes ago

Clear
Clear
29 °F
Feels Like 25 °F
N
4
Wind Variable Wind from ESE

Today
High -- | Low -- °F
--% Chance of Precip.
Yesterday
High -- | Low -- °F
Precip. -- in
Pressure 30.35 in
Visibility 10.0 miles
Clouds Clear
Windchill 25 °F
Dew Point 25 °F
Humidity 84%
Rainfall 0.00 in
Snow Depth Not available.
6:52 AM 5:21 PM
Waning Crescent, 7% visible
METAR KHSB 060815Z AUTO 11003KT 10SM CLR M02/M04 A3035 RMK AO2 T10171040
Pressure 30.35 in
Visibility 10.0 miles
Clouds Clear
Windchill 25 °F
Dew Point 25 °F
Humidity 84%
Rainfall 0.00 in
Snow Depth Not available.
6:52 AM 5:21 PM
Waning Crescent, 7% visible
METAR KHSB 060815Z AUTO 11003KT 10SM CLR M02/M04 A3035 RMK AO2 T10171040

10-Day Weather Forecast

Almanac

Astronomy

Feb. 06, 2016 Rise Set
Actual Time
Civil Twilight
Nautical Twilight
Astronomical Twilight
Moon
Length of Visible Light
Length of Day
Tomorrow will be .
, % of the Moon is Illuminated

Today's Extremes

State Highs State Lows

Community

WunderPhotos

Upload Photos

1,890,933 photos uploaded!

WunderBlog® & News

Nearby

Air Quality

  Air Quality AQ Index Pollutant
Not available.

Snow Depth

Station Depth Elevation

Earthquake Activity

City Distance Mag. Time & Date
Minimum magnitude displayed is 2.5.

Coastal Water Temperatures

Place Temperature

Stations

Nearby Weather Stations

Station Location Temp. Windchill Dew Point Humidity Wind Precip. Elev Updated Type
                   

Watches & Warnings

Flood Warning
Issued: 9:18 PM CST Feb. 5, 2016 – National Weather Service

The Flood Warning continues for
the Ohio River at Shawneetown
* from Sunday morning to Thursday afternoon.
* At 8:30 PM Friday the stage was 30.1 feet.
* Flood stage is 33.0 feet.
* Minor flooding is forecast.
* Forecast... rise above flood stage by Sunday morning and continue to
rise to near 34.7 feet by Tuesday early afternoon. The river will
fall below flood stage by late Thursday morning.
* Impact... at 33.0 feet... minor flooding occurs affecting mainly
bottomland and surrounding low lying areas.


Lat... Lon 3778 8811 3771 8821 3753 8818 3757 8800
      3773 8800